Time;durP1;ratioP1;P1;durP2;ratioP2;P2;SDS_P1;SDS_P2;PMS_P1;PMS_P2;Temp;Humidity;BMP_temperature;BMP_pressure;BME280_temperature;BME280_humidity;BME280_pressure;Samples;Min_cycle;Max_cycle;Signal;HPM_P1;HPM_P2
2023/01/21 00:01:57;;;;;;;41.08;17.73;;;;;;;;;;5039797;28;20052;-88
2023/01/21 00:04:23;;;;;;;40.50;20.48;;;;;;;;;;5032042;28;20570;-88
2023/01/21 00:06:49;;;;;;;38.28;18.33;;;;;;;;;;5015459;28;20136;-88
2023/01/21 00:09:15;;;;;;;39.70;18.17;;;;;;;;;;5044650;28;20040;-88
2023/01/21 00:11:41;;;;;;;36.97;19.15;;;;;;;;;;5042677;28;20066;-88
2023/01/21 00:14:07;;;;;;;40.70;18.80;;;;;;;;;;5040315;28;20053;-88
2023/01/21 00:16:33;;;;;;;39.95;18.50;;;;;;;;;;5017580;28;20047;-88
2023/01/21 00:18:59;;;;;;;42.50;19.10;;;;;;;;;;5042865;28;20055;-89
2023/01/21 00:21:25;;;;;;;38.35;18.20;;;;;;;;;;5028588;28;20099;-88
2023/01/21 00:23:51;;;;;;;36.30;17.45;;;;;;;;;;5028311;28;20094;-88
2023/01/21 00:26:17;;;;;;;39.83;18.25;;;;;;;;;;5045255;28;20411;-87
2023/01/21 00:28:43;;;;;;;37.10;18.30;;;;;;;;;;5045345;28;20041;-88
2023/01/21 00:31:10;;;;;;;40.45;20.10;;;;;;;;;;5028530;28;20087;-88
2023/01/21 00:33:36;;;;;;;38.92;18.52;;;;;;;;;;5028480;28;20403;-88
2023/01/21 00:36:06;;;;;;;38.95;17.67;;;;;;;;;;5025721;28;20431;-88
2023/01/21 00:38:33;;;;;;;42.28;20.60;;;;;;;;;;5034472;28;20111;-88
2023/01/21 00:40:59;;;;;;;43.63;20.52;;;;;;;;;;5027073;28;20630;-88
2023/01/21 00:43:25;;;;;;;50.80;22.80;;;;;;;;;;5015687;28;20063;-88
2023/01/21 00:45:51;;;;;;;48.95;23.13;;;;;;;;;;5028118;28;20495;-88
2023/01/21 00:48:17;;;;;;;50.05;22.85;;;;;;;;;;5027733;28;20463;-88
2023/01/21 00:50:43;;;;;;;49.90;23.23;;;;;;;;;;5016136;28;20049;-88
2023/01/21 00:53:09;;;;;;;46.55;23.60;;;;;;;;;;5025403;28;20045;-88
2023/01/21 00:55:35;;;;;;;44.47;20.75;;;;;;;;;;5034377;28;20491;-88
2023/01/21 00:58:01;;;;;;;50.20;24.25;;;;;;;;;;5040251;28;20050;-88
2023/01/21 01:00:27;;;;;;;47.85;22.98;;;;;;;;;;5036639;28;20045;-87
2023/01/21 01:02:53;;;;;;;52.53;23.83;;;;;;;;;;5038321;28;20055;-88
2023/01/21 01:05:21;;;;;;;51.42;23.48;;;;;;;;;;5030276;28;20052;-88
2023/01/21 01:07:49;;;;;;;42.92;22.15;;;;;;;;;;5027334;28;20258;-89
2023/01/21 01:10:15;;;;;;;51.78;23.30;;;;;;;;;;5043766;28;20113;-88
2023/01/21 01:12:41;;;;;;;51.40;25.52;;;;;;;;;;5033545;28;20045;-89
2023/01/21 01:15:07;;;;;;;46.78;23.08;;;;;;;;;;5040616;28;20041;-89
2023/01/21 01:17:33;;;;;;;50.28;24.98;;;;;;;;;;5043679;28;20102;-89
2023/01/21 01:19:59;;;;;;;53.28;24.90;;;;;;;;;;5029511;28;20136;-88
2023/01/21 01:22:25;;;;;;;53.63;26.15;;;;;;;;;;5043670;28;20044;-89
2023/01/21 01:24:51;;;;;;;57.28;26.60;;;;;;;;;;5043875;28;20033;-88
2023/01/21 01:27:17;;;;;;;53.40;25.58;;;;;;;;;;5027126;28;20124;-89
2023/01/21 01:29:43;;;;;;;50.75;22.88;;;;;;;;;;5027250;28;20123;-88
2023/01/21 01:32:10;;;;;;;52.85;24.83;;;;;;;;;;5043694;28;20128;-88
2023/01/21 01:34:36;;;;;;;54.47;23.98;;;;;;;;;;5027107;28;20037;-87
2023/01/21 01:37:02;;;;;;;53.55;24.90;;;;;;;;;;5032582;28;20131;-88
2023/01/21 01:39:28;;;;;;;52.72;24.60;;;;;;;;;;5041184;28;20044;-89
2023/01/21 01:41:54;;;;;;;53.22;25.00;;;;;;;;;;5044137;28;20163;-88
2023/01/21 01:44:39;;;;;;;46.72;23.35;;;;;;;;;;5027048;28;20612;-88
2023/01/21 01:47:05;;;;;;;51.90;25.77;;;;;;;;;;5043791;28;20356;-88
2023/01/21 01:49:31;;;;;;;49.13;23.33;;;;;;;;;;5039644;28;20540;-88
2023/01/21 01:52:02;;;;;;;52.22;24.55;;;;;;;;;;5026904;28;20041;-88
2023/01/21 01:54:29;;;;;;;49.53;24.35;;;;;;;;;;5037849;28;20041;-88
2023/01/21 01:56:58;;;;;;;50.58;23.63;;;;;;;;;;5015471;28;20118;-88
2023/01/21 01:59:24;;;;;;;50.88;24.23;;;;;;;;;;5019649;28;20578;-88
2023/01/21 02:01:50;;;;;;;49.10;23.17;;;;;;;;;;5036494;28;20044;-88
2023/01/21 02:04:19;;;;;;;43.45;23.27;;;;;;;;;;5023973;28;20116;-88
2023/01/21 02:06:47;;;;;;;45.33;21.17;;;;;;;;;;5035670;28;20053;-88
2023/01/21 02:09:13;;;;;;;50.88;22.80;;;;;;;;;;5026472;28;20552;-88
2023/01/21 02:11:39;;;;;;;42.63;20.95;;;;;;;;;;5043110;28;20041;-88
2023/01/21 02:14:05;;;;;;;40.95;19.85;;;;;;;;;;5026371;28;20099;-88
2023/01/21 02:16:37;;;;;;;40.88;18.48;;;;;;;;;;5018133;28;20052;-88
2023/01/21 02:19:06;;;;;;;40.90;20.00;;;;;;;;;;5038350;28;20076;-88
2023/01/21 02:21:41;;;;;;;40.92;19.65;;;;;;;;;;5026993;28;20049;-89
2023/01/21 02:24:26;;;;;;;45.28;19.88;;;;;;;;;;5026048;28;20041;-88
2023/01/21 02:27:10;;;;;;;33.53;16.50;;;;;;;;;;5043299;28;20055;-88
2023/01/21 02:29:59;;;;;;;47.97;22.02;;;;;;;;;;5013039;28;20868;-88
2023/01/21 02:32:42;;;;;;;45.25;22.42;;;;;;;;;;5036599;28;20052;-88
2023/01/21 02:35:18;;;;;;;46.42;22.08;;;;;;;;;;5021361;28;20048;-87
2023/01/21 02:37:54;;;;;;;47.45;22.95;;;;;;;;;;5047692;28;20570;-88
2023/01/21 02:40:25;;;;;;;45.03;20.67;;;;;;;;;;5047285;28;20348;-88
2023/01/21 02:42:58;;;;;;;47.67;21.27;;;;;;;;;;5029969;28;20040;-88
2023/01/21 02:45:31;;;;;;;46.42;22.67;;;;;;;;;;5013637;28;20088;-88
2023/01/21 02:48:04;;;;;;;38.20;18.30;;;;;;;;;;5044380;28;20476;-88
2023/01/21 02:50:32;;;;;;;48.45;21.25;;;;;;;;;;5033790;28;20045;-88
2023/01/21 02:52:59;;;;;;;49.60;22.75;;;;;;;;;;5033471;28;20045;-87
2023/01/21 02:55:45;;;;;;;49.22;22.65;;;;;;;;;;5033692;28;20071;-88
2023/01/21 02:58:14;;;;;;;50.42;23.08;;;;;;;;;;5033687;28;20059;-88
2023/01/21 03:00:48;;;;;;;51.08;24.75;;;;;;;;;;5016842;28;20041;-87
2023/01/21 03:03:34;;;;;;;46.17;22.27;;;;;;;;;;5043543;28;20044;-87
2023/01/21 03:06:09;;;;;;;47.97;22.00;;;;;;;;;;5025709;28;20133;-88
2023/01/21 03:08:40;;;;;;;47.05;22.80;;;;;;;;;;5027365;28;20131;-88
2023/01/21 03:11:07;;;;;;;50.88;23.25;;;;;;;;;;5014353;28;20048;-88
2023/01/21 03:19:10;;;;;;;52.63;25.13;;;;;;;;;;5035373;28;20052;-88
2023/01/21 03:21:37;;;;;;;41.50;20.02;;;;;;;;;;5032795;28;20050;-88
2023/01/21 03:24:03;;;;;;;44.95;20.85;;;;;;;;;;5046733;28;20399;-88
2023/01/21 03:26:31;;;;;;;44.42;20.58;;;;;;;;;;5021654;28;20077;-88
2023/01/21 03:28:58;;;;;;;49.25;21.83;;;;;;;;;;5032401;28;20079;-88
2023/01/21 03:31:26;;;;;;;47.08;22.90;;;;;;;;;;5025529;28;20407;-88
2023/01/21 03:33:54;;;;;;;42.40;21.38;;;;;;;;;;5029505;28;20104;-88
2023/01/21 03:36:26;;;;;;;48.47;21.90;;;;;;;;;;5032410;28;20072;-88
2023/01/21 03:38:52;;;;;;;43.00;20.90;;;;;;;;;;5032368;28;20045;-88
2023/01/21 03:41:30;;;;;;;45.60;21.38;;;;;;;;;;5034866;28;20082;-88
2023/01/21 03:43:57;;;;;;;47.33;22.00;;;;;;;;;;5048614;28;20069;-88
2023/01/21 03:46:38;;;;;;;54.10;25.33;;;;;;;;;;5049112;28;20555;-88
2023/01/21 03:49:28;;;;;;;47.70;21.83;;;;;;;;;;5048953;28;20135;-88
2023/01/21 03:51:55;;;;;;;57.08;24.05;;;;;;;;;;5019956;28;20048;-88
2023/01/21 03:54:21;;;;;;;55.38;25.08;;;;;;;;;;5048733;28;20033;-88
2023/01/21 03:56:47;;;;;;;50.10;24.10;;;;;;;;;;5044362;28;20036;-89
2023/01/21 03:59:13;;;;;;;52.00;24.08;;;;;;;;;;5032037;28;20059;-88
2023/01/21 04:01:40;;;;;;;54.60;25.73;;;;;;;;;;5048495;28;20048;-88
2023/01/21 04:04:06;;;;;;;58.33;23.90;;;;;;;;;;5048294;28;20525;-88
2023/01/21 04:06:32;;;;;;;71.93;26.75;;;;;;;;;;5031638;28;20127;-88
2023/01/21 04:08:58;;;;;;;102.68;25.95;;;;;;;;;;5027259;28;20051;-88
2023/01/21 04:11:24;;;;;;;108.50;27.27;;;;;;;;;;5022123;28;20044;-88
2023/01/21 04:13:50;;;;;;;164.43;30.02;;;;;;;;;;5017740;28;20420;-88
2023/01/21 04:16:16;;;;;;;144.23;28.17;;;;;;;;;;5031708;28;20047;-88
2023/01/21 04:18:42;;;;;;;120.18;29.10;;;;;;;;;;5047319;28;20477;-88
2023/01/21 04:21:08;;;;;;;94.78;28.13;;;;;;;;;;5043829;28;20040;-88
2023/01/21 04:23:34;;;;;;;182.13;32.17;;;;;;;;;;5031516;28;20159;-88
2023/01/21 04:26:00;;;;;;;101.68;29.02;;;;;;;;;;5048061;28;20080;-88
2023/01/21 04:28:26;;;;;;;89.88;26.67;;;;;;;;;;5020524;28;20080;-88
2023/01/21 04:30:52;;;;;;;95.38;25.80;;;;;;;;;;5028637;28;20045;-88
2023/01/21 04:33:18;;;;;;;67.70;26.25;;;;;;;;;;5047897;28;20048;-88
2023/01/21 04:35:44;;;;;;;107.30;27.58;;;;;;;;;;5047912;28;20055;-88
2023/01/21 04:38:10;;;;;;;114.65;27.95;;;;;;;;;;5030990;28;20585;-88
2023/01/21 04:40:36;;;;;;;78.53;27.05;;;;;;;;;;5031140;28;20127;-88
2023/01/21 04:43:02;;;;;;;88.78;27.10;;;;;;;;;;5031107;28;20462;-88
2023/01/21 04:45:28;;;;;;;65.60;25.70;;;;;;;;;;5047769;28;20052;-88
2023/01/21 04:47:54;;;;;;;77.68;26.45;;;;;;;;;;5047829;28;20051;-88
2023/01/21 04:50:20;;;;;;;69.43;25.98;;;;;;;;;;5038607;28;20628;-88
2023/01/21 04:52:46;;;;;;;68.95;26.33;;;;;;;;;;5024711;28;20044;-88
2023/01/21 04:55:12;;;;;;;65.72;24.40;;;;;;;;;;5010592;28;20048;-89
2023/01/21 04:57:38;;;;;;;67.90;24.90;;;;;;;;;;5040401;28;20141;-88
2023/01/21 05:00:05;;;;;;;61.20;24.85;;;;;;;;;;5047226;28;20453;-88
2023/01/21 05:02:31;;;;;;;53.63;22.23;;;;;;;;;;5040038;28;20144;-88
2023/01/21 05:04:57;;;;;;;54.60;22.55;;;;;;;;;;5024144;28;20040;-88
2023/01/21 05:07:23;;;;;;;64.85;23.73;;;;;;;;;;5041457;28;20391;-88
2023/01/21 05:09:49;;;;;;;67.22;25.23;;;;;;;;;;5038785;28;20052;-88
2023/01/21 05:12:15;;;;;;;58.47;23.98;;;;;;;;;;5032907;28;20033;-88
2023/01/21 05:14:41;;;;;;;64.28;24.67;;;;;;;;;;5030974;28;20531;-88
2023/01/21 05:17:07;;;;;;;52.58;22.17;;;;;;;;;;5030692;28;20040;-88
2023/01/21 05:19:33;;;;;;;58.63;23.20;;;;;;;;;;5047010;28;20048;-88
2023/01/21 05:21:59;;;;;;;64.88;24.55;;;;;;;;;;5047370;28;20127;-88
2023/01/21 05:24:25;;;;;;;60.25;23.00;;;;;;;;;;5030665;28;20047;-88
2023/01/21 05:26:51;;;;;;;65.13;26.33;;;;;;;;;;5030945;28;20045;-88
2023/01/21 05:29:17;;;;;;;68.68;24.65;;;;;;;;;;5033414;28;20045;-88
2023/01/21 05:31:43;;;;;;;63.67;25.02;;;;;;;;;;5037438;28;20049;-88
2023/01/21 05:34:10;;;;;;;66.18;25.35;;;;;;;;;;5026578;28;20045;-88
2023/01/21 05:36:36;;;;;;;74.25;27.92;;;;;;;;;;5022570;28;20052;-88
2023/01/21 05:39:02;;;;;;;71.30;30.52;;;;;;;;;;5041295;28;20521;-88
2023/01/21 05:41:28;;;;;;;79.50;28.63;;;;;;;;;;5024249;28;20055;-88
2023/01/21 05:43:54;;;;;;;81.15;28.65;;;;;;;;;;5035586;28;20061;-89
2023/01/21 05:46:20;;;;;;;81.57;29.40;;;;;;;;;;5043532;28;20049;-88
2023/01/21 05:48:46;;;;;;;73.88;28.17;;;;;;;;;;5032939;28;20427;-89
2023/01/21 05:51:12;;;;;;;75.47;28.27;;;;;;;;;;5039756;28;20151;-89
2023/01/21 05:53:38;;;;;;;87.13;31.17;;;;;;;;;;5035540;28;20162;-88
2023/01/21 05:56:04;;;;;;;85.47;30.92;;;;;;;;;;5037648;28;20037;-88
2023/01/21 05:58:30;;;;;;;79.65;28.33;;;;;;;;;;5029319;28;20049;-89
2023/01/21 06:00:57;;;;;;;78.40;29.88;;;;;;;;;;5026616;28;20135;-88
2023/01/21 06:03:24;;;;;;;67.68;26.83;;;;;;;;;;5043212;28;20053;-87
2023/01/21 06:05:50;;;;;;;77.63;27.73;;;;;;;;;;5026793;28;20033;-88
2023/01/21 06:08:16;;;;;;;92.20;31.40;;;;;;;;;;5046309;28;20084;-88
2023/01/21 06:10:42;;;;;;;77.38;28.23;;;;;;;;;;5047260;28;20037;-88
2023/01/21 06:13:10;;;;;;;80.60;27.83;;;;;;;;;;5030611;28;20056;-88
2023/01/21 06:15:36;;;;;;;79.35;30.13;;;;;;;;;;5047036;28;20079;-88
2023/01/21 06:18:02;;;;;;;76.97;27.58;;;;;;;;;;5038316;28;20073;-88
2023/01/21 06:20:30;;;;;;;83.03;31.27;;;;;;;;;;5026046;28;20415;-88
2023/01/21 06:22:56;;;;;;;75.95;28.77;;;;;;;;;;5023195;28;20073;-88
2023/01/21 06:25:22;;;;;;;71.22;27.45;;;;;;;;;;5040946;28;20170;-88
2023/01/21 06:27:48;;;;;;;84.35;30.17;;;;;;;;;;5030366;28;20052;-88
2023/01/21 06:30:14;;;;;;;77.47;27.98;;;;;;;;;;5047321;28;20041;-88
2023/01/21 06:32:40;;;;;;;74.72;28.15;;;;;;;;;;5032615;28;20041;-88
2023/01/21 06:35:07;;;;;;;74.50;27.85;;;;;;;;;;5030518;28;20037;-88
2023/01/21 06:37:33;;;;;;;75.57;28.35;;;;;;;;;;5047105;28;20040;-88
2023/01/21 06:39:58;;;;;;;73.20;27.77;;;;;;;;;;5032641;28;20122;-88
2023/01/21 06:42:24;;;;;;;73.28;27.98;;;;;;;;;;5035066;28;20044;-87
2023/01/21 06:44:50;;;;;;;73.45;28.83;;;;;;;;;;5051373;28;20041;-88
2023/01/21 06:47:16;;;;;;;81.18;28.52;;;;;;;;;;5049497;28;20048;-88
2023/01/21 06:49:42;;;;;;;69.50;27.63;;;;;;;;;;5030442;28;20037;-88
2023/01/21 06:52:08;;;;;;;72.10;26.98;;;;;;;;;;5030411;28;20624;-88
2023/01/21 06:54:34;;;;;;;67.60;25.20;;;;;;;;;;5032308;28;20045;-88
2023/01/21 06:57:00;;;;;;;67.53;27.48;;;;;;;;;;5029301;28;20049;-88
2023/01/21 06:59:26;;;;;;;74.43;27.60;;;;;;;;;;5046786;28;20049;-88
2023/01/21 07:01:53;;;;;;;72.90;27.10;;;;;;;;;;5029800;28;20509;-88
2023/01/21 07:04:19;;;;;;;74.85;28.63;;;;;;;;;;5016335;28;20425;-88
2023/01/21 07:06:45;;;;;;;69.80;28.20;;;;;;;;;;5027835;28;20044;-87
2023/01/21 07:09:11;;;;;;;67.70;27.02;;;;;;;;;;5027697;28;20076;-88
2023/01/21 07:11:37;;;;;;;69.75;28.10;;;;;;;;;;5030560;28;20859;-89
2023/01/21 07:14:03;;;;;;;78.55;29.15;;;;;;;;;;5026463;28;20037;-89
2023/01/21 07:16:29;;;;;;;68.80;28.75;;;;;;;;;;5034917;28;20107;-88
2023/01/21 07:18:55;;;;;;;73.82;27.95;;;;;;;;;;5027619;28;20177;-88
2023/01/21 07:21:23;;;;;;;64.82;26.45;;;;;;;;;;5046547;28;20139;-89
2023/01/21 07:23:51;;;;;;;66.40;29.08;;;;;;;;;;5027855;28;20049;-89
2023/01/21 07:26:17;;;;;;;60.55;25.70;;;;;;;;;;5028345;28;20053;-88
2023/01/21 07:28:43;;;;;;;71.13;28.08;;;;;;;;;;5037971;28;20403;-89
2023/01/21 07:31:09;;;;;;;70.35;27.67;;;;;;;;;;5046058;28;20123;-89
2023/01/21 07:33:35;;;;;;;71.57;28.77;;;;;;;;;;5044467;28;20041;-89
2023/01/21 07:36:01;;;;;;;67.47;27.88;;;;;;;;;;5041960;28;20056;-89
2023/01/21 07:38:27;;;;;;;64.13;26.42;;;;;;;;;;5042320;28;20048;-89
2023/01/21 07:40:53;;;;;;;64.75;28.08;;;;;;;;;;5028113;28;20044;-91
2023/01/21 07:43:19;;;;;;;62.30;27.50;;;;;;;;;;5028482;28;20081;-89
2023/01/21 07:45:45;;;;;;;65.90;27.98;;;;;;;;;;5030938;28;20076;-89
2023/01/21 07:48:12;;;;;;;59.40;25.30;;;;;;;;;;5023060;28;20601;-89
2023/01/21 07:50:38;;;;;;;61.30;27.05;;;;;;;;;;5029504;28;20041;-89
2023/01/21 07:53:04;;;;;;;56.97;26.38;;;;;;;;;;5028346;28;20051;-91
2023/01/21 07:55:30;;;;;;;62.47;26.85;;;;;;;;;;5042325;28;20497;-90
2023/01/21 07:57:56;;;;;;;56.45;25.42;;;;;;;;;;5030828;28;20048;-88
2023/01/21 08:00:22;;;;;;;59.30;26.65;;;;;;;;;;5045760;28;20530;-87
2023/01/21 08:02:55;;;;;;;53.97;25.52;;;;;;;;;;5028779;28;20414;-89
2023/01/21 08:05:22;;;;;;;57.17;24.65;;;;;;;;;;5027882;28;20467;-89
2023/01/21 08:07:48;;;;;;;53.45;22.95;;;;;;;;;;5039279;28;20071;-89
2023/01/21 08:10:14;;;;;;;51.22;22.73;;;;;;;;;;5038356;28;20067;-89
2023/01/21 08:12:41;;;;;;;55.00;23.38;;;;;;;;;;5027405;28;20584;-89
2023/01/21 08:15:07;;;;;;;52.35;24.10;;;;;;;;;;5048125;28;20402;-89
2023/01/21 08:17:33;;;;;;;57.20;24.98;;;;;;;;;;5046232;28;20052;-90
2023/01/21 08:19:59;;;;;;;54.67;23.65;;;;;;;;;;5046772;28;20464;-88
2023/01/21 08:22:25;;;;;;;51.92;23.92;;;;;;;;;;5017355;28;20032;-87
2023/01/21 08:24:51;;;;;;;53.75;23.65;;;;;;;;;;5047764;28;20048;-87
2023/01/21 08:27:17;;;;;;;53.03;24.67;;;;;;;;;;5046237;28;20384;-88
2023/01/21 08:29:43;;;;;;;47.22;20.75;;;;;;;;;;5045924;28;20048;-87
2023/01/21 08:32:09;;;;;;;44.55;20.08;;;;;;;;;;5034848;28;20045;-91
2023/01/21 08:34:35;;;;;;;45.47;19.80;;;;;;;;;;5012764;28;20028;-88
2023/01/21 08:37:01;;;;;;;46.95;21.58;;;;;;;;;;5022826;28;20036;-88
2023/01/21 08:39:27;;;;;;;49.70;22.20;;;;;;;;;;5031060;28;20097;-89
2023/01/21 08:41:53;;;;;;;47.45;21.33;;;;;;;;;;5030589;28;20516;-88
2023/01/21 08:44:19;;;;;;;48.22;22.38;;;;;;;;;;5041274;28;20061;-88
2023/01/21 08:46:45;;;;;;;45.42;23.63;;;;;;;;;;5031703;28;20197;-88
2023/01/21 08:49:11;;;;;;;48.00;22.92;;;;;;;;;;5042901;28;20202;-89
2023/01/21 08:51:37;;;;;;;77.72;24.27;;;;;;;;;;5030497;28;20036;-88
2023/01/21 08:54:04;;;;;;;71.88;25.90;;;;;;;;;;5031880;28;20053;-89
2023/01/21 08:56:30;;;;;;;87.18;26.50;;;;;;;;;;5041311;28;20511;-90
2023/01/21 08:58:56;;;;;;;97.03;25.95;;;;;;;;;;5043717;28;20041;-86
2023/01/21 09:01:24;;;;;;;124.35;25.23;;;;;;;;;;5015604;28;20053;-89
2023/01/21 09:03:54;;;;;;;200.70;24.98;;;;;;;;;;5040978;28;20115;-87
2023/01/21 09:06:20;;;;;;;182.65;24.27;;;;;;;;;;5038303;28;20522;-88
2023/01/21 09:08:46;;;;;;;152.18;25.15;;;;;;;;;;5043067;28;20078;-87
2023/01/21 09:11:12;;;;;;;127.68;23.80;;;;;;;;;;5038884;28;20041;-87
2023/01/21 09:13:39;;;;;;;165.30;27.15;;;;;;;;;;5035220;28;20496;-88
2023/01/21 09:16:09;;;;;;;98.57;24.70;;;;;;;;;;5039296;28;20600;-85
2023/01/21 09:18:36;;;;;;;65.32;22.42;;;;;;;;;;5029724;28;20410;-87
2023/01/21 09:21:03;;;;;;;60.03;23.63;;;;;;;;;;5022116;28;20044;-91
2023/01/21 09:23:31;;;;;;;48.17;22.65;;;;;;;;;;5027393;28;20102;-89
2023/01/21 09:26:17;;;;;;;44.92;21.80;;;;;;;;;;5028134;28;20037;-91
2023/01/21 09:28:44;;;;;;;45.15;21.10;;;;;;;;;;5027872;28;20080;-89
2023/01/21 09:31:11;;;;;;;39.60;20.17;;;;;;;;;;5043696;28;20120;-88
2023/01/21 09:33:39;;;;;;;40.22;19.90;;;;;;;;;;5026934;28;20133;-88
2023/01/21 09:36:06;;;;;;;39.85;20.38;;;1.60;99.90;;;;;;5026803;28;20106;-88
2023/01/21 09:38:33;;;;;;;38.83;19.48;;;;;;;;;;5034659;28;20049;-90
2023/01/21 09:41:12;;;;;;;38.33;19.20;;;;;;;;;;5008046;28;20056;-90
2023/01/21 09:43:43;;;;;;;38.60;19.38;;;;;;;;;;5021670;28;20055;-92
2023/01/21 09:46:16;;;;;;;41.85;17.98;;;;;;;;;;5036300;28;20192;-87
2023/01/21 09:48:43;;;;;;;36.30;17.50;;;;;;;;;;5042878;28;20570;-90
2023/01/21 09:51:15;;;;;;;52.75;19.42;;;;;;;;;;5028642;28;20044;-88
2023/01/21 09:53:44;;;;;;;46.08;18.08;;;;;;;;;;5031131;28;20037;-88
2023/01/21 09:56:17;;;;;;;34.35;17.20;;;;;;;;;;5028139;28;20258;-86
2023/01/21 09:58:47;;;;;;;44.65;21.08;;;;;;;;;;5047687;28;20332;-89
2023/01/21 10:01:23;;;;;;;40.67;18.73;;;;;;;;;;5033899;28;20052;-89
2023/01/21 10:03:49;;;;;;;42.30;16.65;;;;;;;;;;5033552;28;20041;-89
2023/01/21 10:06:31;;;;;;;30.58;16.90;;;;;;;;;;5034019;28;20048;-89
2023/01/21 10:09:20;;;;;;;48.83;17.15;;;;;;;;;;5029828;28;20037;-89
2023/01/21 10:11:57;;;;;;;113.68;18.75;;;;;;;;;;5033824;28;20378;-88
2023/01/21 10:14:43;;;;;;;37.78;17.48;;;;;;;;;;5037311;28;20048;-88
2023/01/21 10:17:28;;;;;;;53.20;18.27;;;;;;;;;;5049974;28;20076;-88
2023/01/21 10:20:00;;;;;;;60.50;18.67;;;;;;;;;;5044680;28;20491;-88
2023/01/21 10:22:27;;;;;;;48.17;18.48;;;;;;;;;;5030963;28;20044;-88
2023/01/21 10:24:55;;;;;;;37.55;18.70;;;;;;;;;;5040440;28;20346;-89
2023/01/21 10:27:22;;;;;;;58.88;18.58;;;;;;;;;;5029458;28;20045;-89
2023/01/21 10:29:52;;;;;;;75.80;20.13;;;;;;;;;;5033351;28;20402;-88
2023/01/21 10:32:21;;;;;;;72.55;20.65;;;;;;;;;;5032977;28;20040;-88
2023/01/21 10:34:50;;;;;;;77.88;20.77;;;;;;;;;;5037913;28;20573;-88
2023/01/21 10:37:34;;;;;;;67.68;20.88;;;;;;;;;;5037136;28;20485;-89
2023/01/21 10:40:17;;;;;;;91.15;21.05;;;;;;;;;;5018734;28;20045;-88
2023/01/21 10:42:43;;;;;;;62.78;20.48;;;;;;;;;;5028755;28;20044;-87
2023/01/21 10:45:20;;;;;;;46.10;20.67;;;;;;;;;;5050249;28;20791;-89
2023/01/21 10:48:09;;;;;;;56.10;21.08;;;;;;;;;;5033764;28;20044;-89
2023/01/21 10:50:50;;;;;;;86.07;21.45;;;;;;;;;;5039200;28;20084;-89
2023/01/21 10:53:35;;;;;;;58.40;19.23;;;;;;;;;;5031410;28;20558;-88
2023/01/21 10:56:04;;;;;;;76.55;20.48;;;;;;;;;;5049746;28;20422;-91
2023/01/21 10:58:33;;;;;;;60.25;20.90;;;;;;;;;;5035709;28;20513;-89
2023/01/21 11:01:01;;;;;;;62.25;21.30;;;;;;;;;;5049367;28;20048;-89
2023/01/21 11:03:33;;;;;;;66.85;21.80;;;;;;;;;;5032806;28;20059;-89
2023/01/21 11:06:24;;;;;;;51.75;20.48;;;;;;;;;;5049749;28;20510;-88
2023/01/21 11:08:52;;;;;;;66.32;19.75;;;;;;;;;;5033480;28;20049;-89
2023/01/21 11:11:25;;;;;;;55.58;20.50;;;;;;;;;;5049233;28;20515;-89
2023/01/21 11:13:51;;;;;;;69.30;20.92;;;;;;;;;;5048815;28;20075;-89
2023/01/21 11:16:30;;;;;;;82.07;21.35;;;;;;;;;;5049019;28;20469;-90
2023/01/21 11:18:56;;;;;;;44.03;20.40;;;;;;;;;;5031459;28;20036;-89
2023/01/21 11:21:23;;;;;;;74.72;21.50;;;;;;;;;;5045151;28;20044;-89
2023/01/21 11:23:57;;;;;;;53.97;20.67;;;;;;;;;;5029086;28;20107;-89
2023/01/21 11:26:26;;;;;;;56.03;20.42;;;;;;;;;;5048774;28;20041;-89
2023/01/21 11:29:07;;;;;;;131.63;23.90;;;;;;;;;;5028174;28;20041;-90
2023/01/21 11:31:34;;;;;;;64.13;21.10;;;;;;;;;;5027736;28;20044;-90
2023/01/21 11:34:04;;;;;;;64.88;21.88;;;;;;;;;;5041762;28;20044;-90
2023/01/21 11:36:30;;;;;;;53.63;23.02;;;;;;;;;;5045598;28;20174;-90
2023/01/21 11:39:01;;;;;;;43.08;20.45;;;;;;;;;;5031127;28;20481;-89
2023/01/21 11:41:27;;;;;;;73.57;21.77;;;;;;;;;;5030437;28;20120;-89
2023/01/21 11:43:54;;;;;;;50.28;20.63;;;;;;;;;;5047406;28;20136;-90
2023/01/21 11:46:22;;;;;;;44.30;20.30;;;;;;;;;;5043578;28;20045;-89
2023/01/21 11:48:48;;;;;;;81.78;21.73;;;;;;;;;;5032172;28;20064;-89
2023/01/21 11:51:16;;;;;;;46.20;20.88;;;;;;;;;;5032751;28;20051;-89
2023/01/21 11:53:42;;;;;;;58.28;21.13;;;;;;;;;;5047687;28;20037;-87
2023/01/21 11:56:08;;;;;;;53.70;20.02;;;;;;;;;;5028959;28;20041;-89
2023/01/21 11:58:36;;;;;;;46.75;21.73;;;;;;;;;;5034123;28;20056;-88
2023/01/21 12:01:03;;;;;;;82.10;21.52;;;;;;;;;;5031935;28;20134;-88
2023/01/21 12:03:31;;;;;;;72.68;21.88;;;;;;;;;;5048259;28;20053;-88
2023/01/21 12:05:58;;;;;;;62.17;22.23;;;;;;;;;;5048057;28;20036;-87
2023/01/21 12:08:31;;;;;;;83.10;23.33;;;;;;;;;;5048209;28;20558;-86
2023/01/21 12:11:02;;;;;;;95.05;24.13;;;;;;;;;;5018728;28;20055;-90
2023/01/21 12:13:39;;;;;;;76.93;24.60;;;;;;;;;;5031147;28;20040;-89
2023/01/21 12:16:20;;;;;;;58.53;22.27;;;;;;;;;;5019611;28;20273;-90
2023/01/21 12:18:58;;;;;;;70.82;23.88;;;;;;;;;;5017854;28;20533;-90
2023/01/21 12:21:24;;;;;;;64.57;24.75;;;;;;;;;;5040552;28;20839;-89
2023/01/21 12:24:08;;;;;;;96.07;26.15;;;;;;;;;;5048109;28;20050;-88
2023/01/21 12:26:34;;;;;;;74.57;23.77;;;;;;;;;;5048275;28;20082;-86
2023/01/21 12:29:12;;;;;;;64.22;26.75;;;;;;;;;;5043533;28;20087;-90
2023/01/21 12:31:43;;;;;;;51.50;23.30;;;;;;;;;;5023866;28;20075;-89
2023/01/21 12:34:09;;;;;;;70.43;24.30;;;;;;;;;;5047924;28;20080;-89
2023/01/21 12:36:41;;;;;;;66.65;24.25;;;;;;;;;;5031406;28;20098;-87
2023/01/21 12:39:19;;;;;;;43.97;21.90;;;;;;;;;;5030699;28;20040;-89
2023/01/21 12:41:48;;;;;;;64.00;23.25;;;;;;;;;;5040362;28;20048;-88
2023/01/21 12:44:33;;;;;;;46.80;22.13;;;;;;;;;;5028515;28;20092;-88
2023/01/21 12:47:02;;;;;;;48.05;21.00;;;;;;;;;;5045597;28;20442;-88
2023/01/21 12:49:32;;;;;;;43.63;21.05;;;;;;;;;;5045405;28;20573;-88
2023/01/21 12:52:01;;;;;;;61.00;20.98;;;;;;;;;;5047094;28;20844;-88
2023/01/21 12:54:43;;;;;;;61.78;20.88;;;;;;;;;;5012708;28;20118;-88
2023/01/21 12:57:09;;;;;;;47.10;20.08;;;;;;;;;;5027090;28;20139;-87
2023/01/21 12:59:55;;;;;;;42.92;20.17;;;;;;;;;;5030979;28;20044;-88
2023/01/21 13:02:31;;;;;;;33.30;18.67;;;;;;;;;;5030477;28;20487;-90
2023/01/21 13:05:03;;;;;;;31.88;17.38;;;;;;;;;;5030698;28;20097;-90
2023/01/21 13:07:36;;;;;;;31.02;17.92;;;;;;;;;;5047565;28;20041;-90
2023/01/21 13:10:11;;;;;;;31.40;19.10;;;;;;;;;;5030455;28;20469;-91
2023/01/21 13:12:38;;;;;;;33.42;18.63;;;;;;;;;;5013670;28;20047;-90
2023/01/21 13:15:14;;;;;;;32.70;19.67;;;;;;;;;;5039538;28;20047;-90
2023/01/21 13:17:42;;;;;;;30.90;18.83;;;;;;;;;;5013134;28;20162;-91
2023/01/21 13:20:15;;;;;;;33.10;19.33;;;;;;;;;;5023210;28;20054;-90
2023/01/21 13:22:55;;;;;;;31.30;18.30;;;;;;;;;;5030724;28;20126;-90
2023/01/21 13:25:30;;;;;;;30.30;19.50;;;;;;;;;;5018595;28;20105;-89
2023/01/21 13:27:57;;;;;;;30.73;17.73;;;;;;;;;;5034139;28;20078;-89
2023/01/21 13:30:42;;;;;;;33.30;19.05;;;;;;;;;;5047344;28;20052;-88
2023/01/21 13:33:29;;;;;;;29.57;18.87;;;;;;;;;;5047570;28;20083;-91
2023/01/21 13:35:55;;;;;;;30.45;19.73;;;;;;;;;;5041296;28;20406;-90
2023/01/21 13:38:21;;;;;;;28.75;16.95;;;;;;;;;;5019385;28;20056;-88
2023/01/21 13:41:12;;;;;;;27.05;16.20;;;;;;;;;;5031042;28;20525;-88
2023/01/21 13:43:57;;;;;;;27.17;16.95;;;;;;;;;;5022238;28;20044;-91
2023/01/21 13:46:59;;;;;;;23.33;13.90;;;;;;;;;;5028518;28;20503;-91
2023/01/21 13:49:25;;;;;;;18.05;11.20;;;;;;;;;;5026517;28;20044;-94
2023/01/21 13:52:10;;;;;;;19.88;12.43;;;;;;;;;;5015964;28;20036;-93
2023/01/21 13:54:39;;;;;;;16.70;9.55;;;;;;;;;;5047622;28;20510;-90
2023/01/21 13:57:20;;;;;;;15.43;8.68;;;;;;;;;;5030603;28;20051;-92
2023/01/21 13:59:52;;;;;;;16.80;8.82;;;;;;;;;;5032806;28;20041;-87
2023/01/21 14:02:22;;;;;;;12.57;8.60;;;;;;;;;;5032916;28;20067;-88
2023/01/21 14:05:23;;;;;;;12.48;7.65;;;;;;;;;;5034725;28;20048;-87
2023/01/21 14:07:59;;;;;;;12.68;8.25;;;;;;;;;;4964966;28;20052;-88
2023/01/21 14:10:33;;;;;;;13.70;8.27;;;;;;;;;;5008651;28;20414;-89
2023/01/21 14:13:19;;;;;;;11.48;7.60;;;;;;;;;;5046899;28;20041;-90
2023/01/21 14:15:45;;;;;;;15.25;7.57;;;;;;;;;;5026229;28;20483;-89
2023/01/21 14:18:24;;;;;;;13.20;7.40;;;;;;;;;;5022101;28;20052;-94
2023/01/21 14:21:06;;;;;;;11.30;7.05;;;;;;;;;;5031026;28;20041;-93
2023/01/21 14:23:50;;;;;;;14.38;7.35;;;;;;;;;;5030162;28;20567;-88
2023/01/21 14:26:21;;;;;;;10.90;6.97;;;;;;;;;;5032915;28;20044;-87
2023/01/21 14:28:58;;;;;;;10.48;6.80;;;;;;;;;;5041520;28;20303;-87
2023/01/21 14:31:30;;;;;;;14.45;7.80;;;;;;;;;;5049853;28;20514;-86
2023/01/21 14:34:02;;;;;;;10.20;6.32;;;;;;;;;;5035709;28;20044;-88
2023/01/21 14:36:40;;;;;;;12.05;7.07;;;;;;;;;;5036818;28;20040;-86